Terminal Aerodrome Forecast
Issued by NWS

Home | Current Version | Previous Version | Text Only | Print | Product List | Glossary On
Versions: 1 2 3 4 5 6 7 8 9 10 11 12 13 14 15
000
FTUS46 KMTR 182300
TAFSNS
TAF
KSNS 182321Z 1900/1924 29012G16KT P6SM SKC
     FM190400 31005KT P6SM SCT009
     FM190600 VRB03KT P6SM BKN007
     FM191700 VRB03KT P6SM SKC
     FM192000 29011KT P6SM SKC=

USA.gov is the U.S. government's official web portal to all federal, state and local government web resources and services.